Wheat Ridge, CO (80033)

7:05 PM MDT on September 02, 2014 (GMT -0600)
Crown Hill Park | Change Station
CLOSE
Current Station
Personal Weather Station
Location: Wheat Ridge, CO
Elevation: 5480 ft
Nearby Weather Stations

Elev 5480 ft 39.77 °N, 105.10 °W | Updated 8 minutes ago

Clear
Clear
80.4 °F
Feels Like 80 °F
N
0.0
Wind Variable Wind from SE

Today
High -- | Low -- °F
--% Chance of Precip.
Yesterday
High -- | Low -- °F
Precip. -- in
6:29 AM 7:29 PM
First Quarter, 56% visible
Pressure 29.99 in
Visibility 30.0 miles
Clouds Few 8000 ft
Heat Index 80 °F
Dew Point 48 °F
Humidity 32%
Rainfall 0.00 in
Snow Depth Not available.
UV 0 out of 12
Pollen 10.10 out of 12
Ozone Moderate
PM2.5 Good
Flu Activity Not available.
METAR KBJC 030055Z 33005KT 30SM FEW080 28/08 A2999

More Conditions Fewer Conditions

Pressure 29.99 in
Visibility 30.0 miles
Clouds Few 8000 ft
Heat Index 80 °F
Dew Point 48 °F
Humidity 32%
Rainfall 0.00 in
Snow Depth Not available.
UV 0 out of 12
Pollen 10.10 out of 12
Ozone Moderate
PM2.5 Good
Flu Activity Not available.
METAR KBJC 030055Z 33005KT 30SM FEW080 28/08 A2999

More Conditions Fewer Conditions

10-Day Weather Forecast

Almanac

Astronomy

Sep. 02, 2014 Rise Set
Actual Time 6:29 AM MDT 7:29 PM MDT
Civil Twilight 6:01 AM MDT 7:57 PM MDT
Nautical Twilight 5:28 AM MDT 8:30 PM MDT
Astronomical Twilight 4:54 AM MDT 9:04 PM MDT
Moon 2:15 PM MDT (9/2) No Moon Set
Length of Visible Light 13h 55m
Length of Day
13h 00m
Tomorrow will be 2m 31s shorter.
First Quarter, 56% of the Moon is Illuminated
Today
First Quarter
Sep 8
Full
Sep 15
Last Quarter
Sep 24
New
Oct 1
First Quarter

Today's Extremes

State Highs State Lows

Community

WunderPhotos

Upload Photos

1,749,826 photos uploaded!

Nearby

Air Quality

  Air Quality AQ Index Pollutant
Yesterday Moderate
OZONE
Yesterday Good
PM10
Current Moderate
OZONE
Current Good
PM2.5
Tuesday Moderate
OZONE
Tuesday Good
PM2.5
Wednesday Moderate
OZONE
Wednesday Good
PM2.5

Snow Depth

Station Depth Elevation
Niwot 0 in 9910 ft
Willow Park 1 in 10700 ft
Vail Mountain 88 in 10300 ft
Mccoy Park 14 in 9480 ft
Rawah 18 in 9020 ft

Earthquake Activity

City Distance Mag. Time & Date
No recent earthquake activity has been reported nearby.
Minimum magnitude displayed is 2.5.

Coastal Water Temperatures

Place Temperature
No Stations Reporting

Nearby Weather Stations